Terminal Aerodrome Forecast
Issued by NWS

Home | Current Version | Previous Version | Text Only | Print | Product List | Glossary On
Versions: 1 2 3 4 5 6 7 8 9 10 11 12 13 14 15 16 17 18 19 20 21 22 23
010
FTUS43 KGLD 211139
TAFMCK
TAF
KMCK 211139Z 2112/2212 08012KT P6SM VCSH OVC035
     FM211500 09013KT P6SM VCSH OVC020
     FM211800 07011KT 6SM -SHRA OVC030
     FM212300 06010KT P6SM VCSH OVC040
     FM220500 33006KT P6SM BKN060=

USA.gov is the U.S. government's official web portal to all federal, state and local government web resources and services.